Time;durP1;ratioP1;P1;durP2;ratioP2;P2;SDS_P1;SDS_P2;PMS_P1;PMS_P2;Temp;Humidity;BMP_temperature;BMP_pressure;BME280_temperature;BME280_humidity;BME280_pressure;Samples;Min_cycle;Max_cycle;Signal;HPM_P1;HPM_P2
2021/11/06 00:01:06;;;;;;;21.33;10.15;;;8.70;99.90;;;6.16;100.00;101738.22;5000373;28;20097;-78
2021/11/06 00:03:35;;;;;;;21.42;9.38;;;8.70;99.90;;;6.18;100.00;101736.25;5000812;28;20050;-78
2021/11/06 00:06:02;;;;;;;24.67;10.45;;;8.70;99.90;;;6.13;100.00;101735.78;5000095;28;20070;-78
2021/11/06 00:08:29;;;;;;;26.73;10.20;;;8.70;99.90;;;6.12;100.00;101744.88;4999508;28;20124;-78
2021/11/06 00:10:57;;;;;;;19.92;9.63;;;8.70;99.90;;;6.06;100.00;101737.28;4999778;28;20077;-80
2021/11/06 00:13:24;;;;;;;17.27;8.85;;;8.70;99.90;;;6.04;100.00;101741.94;4998811;28;20512;-80
2021/11/06 00:15:51;;;;;;;18.88;8.80;;;8.70;99.90;;;5.97;100.00;101743.41;5000252;28;20078;-80
2021/11/06 00:18:18;;;;;;;16.27;8.63;;;8.60;99.90;;;5.95;100.00;101737.25;4999181;28;20045;-80
2021/11/06 00:20:47;;;;;;;17.63;8.82;;;8.60;99.90;;;5.94;100.00;101738.22;4999606;28;20133;-80
2021/11/06 00:23:15;;;;;;;17.58;8.88;;;8.70;99.90;;;5.92;100.00;101740.19;4990261;28;20598;-80
2021/11/06 00:25:42;;;;;;;20.75;8.68;;;8.60;99.90;;;5.94;100.00;101738.22;4999595;28;20137;-80
2021/11/06 00:28:09;;;;;;;18.98;9.23;;;8.60;99.90;;;5.94;100.00;101743.63;4999303;28;20689;-80
2021/11/06 00:30:37;;;;;;;17.63;9.68;;;8.50;99.90;;;5.92;100.00;101740.19;5000980;28;20149;-80
2021/11/06 00:33:05;;;;;;;23.20;10.00;;;8.50;99.90;;;5.85;100.00;101732.59;4999447;28;20049;-80
2021/11/06 00:35:32;;;;;;;23.00;10.02;;;8.50;99.90;;;5.95;100.00;101739.94;4999613;28;20112;-80
2021/11/06 00:38:01;;;;;;;16.67;9.93;;;8.50;99.90;;;5.91;100.00;101746.59;4998706;28;20039;-80
2021/11/06 00:40:29;;;;;;;18.55;10.55;;;8.50;99.90;;;5.92;100.00;101751.88;4997882;28;20061;-80
2021/11/06 00:42:56;;;;;;;19.88;10.95;;;8.50;99.90;;;5.90;100.00;101742.16;4999388;28;20053;-80
2021/11/06 00:45:23;;;;;;;29.35;12.48;;;8.40;99.90;;;5.88;100.00;101737.75;4999931;28;20054;-80
2021/11/06 00:47:50;;;;;;;21.73;11.25;;;8.40;99.90;;;5.86;100.00;101742.44;4996684;28;20496;-80
2021/11/06 00:50:18;;;;;;;30.70;13.25;;;8.40;99.90;;;5.87;100.00;101740.56;5000371;28;20038;-80
2021/11/06 00:52:47;;;;;;;29.98;14.25;;;8.50;99.90;;;5.85;100.00;101743.38;4999066;28;20502;-80
2021/11/06 00:55:17;;;;;;;25.52;12.70;;;8.50;99.90;;;5.91;100.00;101738.50;4999250;28;20129;-80
2021/11/06 00:57:45;;;;;;;26.02;12.73;;;8.40;99.90;;;5.90;100.00;101737.59;4998210;28;20124;-80
2021/11/06 01:00:14;;;;;;;26.63;13.73;;;8.40;99.90;;;5.92;100.00;101740.19;4997815;28;20085;-80
2021/11/06 01:02:42;;;;;;;25.23;13.23;;;8.50;99.90;;;5.92;100.00;101740.19;4999105;28;20196;-80
2021/11/06 01:05:12;;;;;;;32.40;13.27;;;8.40;99.90;;;5.91;100.00;101739.34;4998795;28;20082;-80
2021/11/06 01:07:40;;;;;;;22.55;12.90;;;8.50;99.90;;;5.93;100.00;101744.63;4998285;28;20042;-80
2021/11/06 01:10:10;;;;;;;28.95;13.75;;;8.40;99.90;;;5.89;100.00;101746.72;4998542;28;20072;-80
2021/11/06 01:12:39;;;;;;;25.15;12.93;;;8.40;99.90;;;5.91;100.00;101750.16;4997702;28;20038;-80
2021/11/06 01:15:10;;;;;;;22.73;12.43;;;8.40;99.90;;;5.91;100.00;101749.28;4998517;28;20478;-80
2021/11/06 01:17:37;;;;;;;24.98;13.15;;;8.40;99.90;;;5.90;100.00;101747.56;4997840;28;20079;-80
2021/11/06 01:20:06;;;;;;;25.92;12.40;;;8.40;99.90;;;5.85;100.00;101745.25;4999098;28;20521;-80
2021/11/06 01:22:33;;;;;;;26.90;13.88;;;8.50;99.90;;;5.89;100.00;101746.72;5002009;28;20062;-80
2021/11/06 01:25:00;;;;;;;22.85;13.43;;;8.40;99.90;;;5.88;100.00;101748.56;4998994;28;20146;-80
2021/11/06 01:27:28;;;;;;;27.08;13.70;;;8.40;99.90;;;5.87;100.00;101749.53;4998144;28;20581;-80
2021/11/06 01:29:56;;;;;;;30.80;14.68;;;8.40;99.90;;;5.86;100.00;101753.22;4998922;28;20125;-80
2021/11/06 01:32:24;;;;;;;29.77;14.57;;;8.40;99.90;;;5.87;100.00;101762.19;4994703;28;20061;-80
2021/11/06 01:34:51;;;;;;;24.55;13.00;;;8.40;99.90;;;5.88;100.00;101763.88;4988871;28;20065;-80
2021/11/06 01:37:18;;;;;;;36.22;14.90;;;8.40;99.90;;;5.83;100.00;101761.56;4998161;28;20134;-80
2021/11/06 01:39:45;;;;;;;23.15;12.65;;;8.40;99.90;;;5.86;100.00;101758.63;4998152;28;20051;-80
2021/11/06 01:42:13;;;;;;;26.08;13.23;;;8.40;99.90;;;5.88;100.00;101761.19;4998714;28;20153;-80
2021/11/06 01:44:40;;;;;;;30.40;14.45;;;8.40;99.90;;;5.90;100.00;101761.91;4998211;28;20134;-80
2021/11/06 01:47:10;;;;;;;36.42;13.88;;;8.40;99.90;;;5.87;100.00;101760.34;4998541;28;20491;-80
2021/11/06 01:49:38;;;;;;;28.63;13.85;;;8.40;99.90;;;5.83;100.00;101753.47;4998565;28;20037;-80
2021/11/06 01:52:07;;;;;;;24.48;12.82;;;8.40;99.90;;;5.84;100.00;101749.75;4998559;28;20082;-80
2021/11/06 01:54:34;;;;;;;28.30;12.88;;;8.40;99.90;;;5.83;100.00;101753.47;4998441;28;20042;-80
2021/11/06 01:57:03;;;;;;;26.30;11.48;;;8.40;99.90;;;5.90;100.00;101747.56;4998810;28;20467;-80
2021/11/06 01:59:30;;;;;;;25.45;11.75;;;8.40;99.90;;;5.87;100.00;101749.53;4997204;28;20057;-80
2021/11/06 02:01:58;;;;;;;36.05;12.82;;;8.40;99.90;;;5.81;100.00;101750.03;4998445;28;20120;-80
2021/11/06 02:04:27;;;;;;;37.95;12.55;;;8.40;99.90;;;5.81;100.00;101755.44;4997906;28;20062;-80
2021/11/06 02:06:54;;;;;;;35.83;13.70;;;8.40;99.90;;;5.85;100.00;101750.66;4996788;28;20130;-80
2021/11/06 02:09:22;;;;;;;36.05;12.80;;;8.40;99.90;;;5.87;100.00;101754.94;4997341;28;20108;-80
2021/11/06 02:11:49;;;;;;;33.35;13.02;;;8.40;99.90;;;5.77;100.00;101753.09;4997278;28;20046;-80
2021/11/06 02:14:17;;;;;;;28.52;12.80;;;8.30;99.90;;;5.78;100.00;101755.66;4998033;28;20121;-80
2021/11/06 02:16:44;;;;;;;31.00;11.68;;;8.30;99.90;;;5.77;100.00;101751.25;4997958;28;20049;-80
2021/11/06 02:19:11;;;;;;;27.75;12.07;;;8.40;99.90;;;5.82;100.00;101750.88;4997076;28;20124;-80
2021/11/06 02:21:40;;;;;;;31.98;12.57;;;8.30;99.90;;;5.78;100.00;101744.88;4997557;28;20514;-80
2021/11/06 02:24:07;;;;;;;29.95;11.73;;;8.30;99.90;;;5.75;100.00;101750.53;4997679;28;20073;-80
2021/11/06 02:26:35;;;;;;;33.60;11.93;;;8.30;99.90;;;5.78;100.00;101750.25;4997910;28;20411;-80
2021/11/06 02:29:04;;;;;;;36.17;12.02;;;8.30;99.90;;;5.78;100.00;101742.16;4997998;28;20124;-80
2021/11/06 02:31:32;;;;;;;38.33;12.55;;;8.30;99.90;;;5.72;100.00;101741.81;4998259;28;20046;-80
2021/11/06 02:33:59;;;;;;;29.38;12.52;;;8.30;99.90;;;5.68;100.00;101739.34;4997695;28;20038;-80
2021/11/06 02:36:27;;;;;;;34.28;12.68;;;8.30;99.90;;;5.72;100.00;101742.66;4997953;28;20045;-80
2021/11/06 02:38:56;;;;;;;36.70;12.68;;;8.30;99.90;;;5.67;100.00;101736.75;4996892;28;20037;-80
2021/11/06 02:41:23;;;;;;;37.58;12.43;;;8.30;99.90;;;5.67;100.00;101736.75;4998439;28;20050;-80
2021/11/06 02:43:51;;;;;;;31.48;12.40;;;8.30;99.90;;;5.67;100.00;101734.06;4998176;28;20084;-80
2021/11/06 02:46:18;;;;;;;33.05;11.70;;;8.20;99.90;;;5.66;100.00;101735.91;4998152;28;20377;-80
2021/11/06 02:48:45;;;;;;;28.17;12.05;;;8.20;99.90;;;5.68;100.00;101738.50;4996865;28;20125;-80
2021/11/06 02:51:15;;;;;;;29.17;11.45;;;8.20;99.90;;;5.68;100.00;101735.78;4998633;28;20127;-80
2021/11/06 02:53:42;;;;;;;32.20;11.05;;;8.20;99.90;;;5.68;100.00;101733.94;4998029;28;20054;-80
2021/11/06 02:56:10;;;;;;;25.20;11.40;;;8.20;99.90;;;5.71;100.00;101742.78;4998095;28;20108;-80
2021/11/06 02:58:38;;;;;;;33.47;11.88;;;8.20;99.90;;;5.74;100.00;101732.59;4996967;28;20045;-80
2021/11/06 03:01:05;;;;;;;25.13;10.68;;;8.20;99.90;;;5.68;100.00;101739.34;4997967;28;20046;-80
2021/11/06 03:03:33;;;;;;;23.65;10.40;;;8.20;99.90;;;5.65;100.00;101736.91;4998391;28;20421;-80
2021/11/06 03:06:00;;;;;;;28.50;10.43;;;8.20;99.90;;;5.64;100.00;101735.16;4997872;28;20081;-80
2021/11/06 03:08:27;;;;;;;27.05;10.93;;;8.10;99.90;;;5.63;100.00;101738.00;4997483;28;20046;-80
2021/11/06 03:10:55;;;;;;;25.08;10.35;;;8.10;99.90;;;5.54;100.00;101736.00;4997630;28;20052;-80
2021/11/06 03:13:25;;;;;;;24.80;10.52;;;8.10;99.90;;;5.48;100.00;101740.94;4997551;28;20481;-80
2021/11/06 03:15:52;;;;;;;31.23;10.93;;;8.10;99.90;;;5.53;100.00;101734.31;4997944;28;20046;-80
2021/11/06 03:18:20;;;;;;;20.42;10.32;;;8.10;99.90;;;5.57;100.00;101738.47;4997421;28;20038;-80
2021/11/06 03:20:47;;;;;;;27.80;11.38;;;8.10;99.90;;;5.55;100.00;101729.66;5000453;28;20099;-80
2021/11/06 03:23:14;;;;;;;24.23;10.70;;;8.10;99.90;;;5.51;100.00;101737.13;5000952;28;20049;-80
2021/11/06 03:25:42;;;;;;;27.05;10.20;;;8.10;99.90;;;5.48;100.00;101738.25;5001194;28;20495;-80
2021/11/06 03:28:09;;;;;;;27.92;10.45;;;8.10;99.90;;;5.41;100.00;101736.16;5000054;28;20145;-80
2021/11/06 03:30:38;;;;;;;29.13;11.38;;;8.00;99.90;;;5.44;100.00;101731.34;5001423;28;20125;-80
2021/11/06 03:33:05;;;;;;;26.42;10.68;;;8.00;99.90;;;5.44;100.00;101742.13;5001185;28;20078;-80
2021/11/06 03:35:32;;;;;;;28.13;10.68;;;8.00;99.90;;;5.41;100.00;101744.25;5001161;28;20050;-80
2021/11/06 03:38:01;;;;;;;22.83;10.85;;;8.00;99.90;;;5.42;100.00;101744.09;5000025;28;20078;-80
2021/11/06 03:40:29;;;;;;;26.75;10.98;;;8.00;99.90;;;5.37;100.00;101746.31;5001093;28;20046;-79
2021/11/06 03:42:56;;;;;;;26.60;11.20;;;7.90;99.90;;;5.34;100.00;101738.44;5000194;28;20131;-79
2021/11/06 03:45:23;;;;;;;23.73;11.05;;;7.90;99.90;;;5.42;100.00;101741.41;5000851;28;20077;-79
2021/11/06 03:47:52;;;;;;;25.27;10.60;;;7.90;99.90;;;5.36;100.00;101744.59;5000310;28;20121;-79
2021/11/06 03:50:19;;;;;;;27.45;12.10;;;7.90;99.90;;;5.32;100.00;101748.50;5002023;28;20056;-79
2021/11/06 03:52:47;;;;;;;24.30;10.68;;;7.90;99.90;;;5.27;100.00;101740.78;5000615;28;20151;-79
2021/11/06 03:55:15;;;;;;;31.38;10.50;;;7.90;99.90;;;5.33;100.00;101744.84;5000724;28;20129;-79
2021/11/06 03:57:42;;;;;;;25.75;10.75;;;7.90;99.90;;;5.33;100.00;101739.44;4999665;28;20049;-79
2021/11/06 04:00:13;;;;;;;26.55;11.40;;;7.90;99.90;;;5.37;100.00;101740.03;5000419;28;20081;-79
2021/11/06 04:02:41;;;;;;;28.85;10.57;;;7.90;99.90;;;5.38;100.00;101741.78;5000087;28;20070;-79
2021/11/06 04:05:11;;;;;;;22.48;10.70;;;7.90;99.90;;;5.43;100.00;101740.44;5000496;28;20054;-79
2021/11/06 04:07:39;;;;;;;23.38;10.77;;;7.90;99.90;;;5.47;100.00;101746.47;5000107;28;20084;-79
2021/11/06 04:10:08;;;;;;;26.38;11.57;;;7.90;99.90;;;5.57;100.00;101735.78;5000506;28;20044;-79
2021/11/06 04:12:37;;;;;;;29.73;11.50;;;7.90;99.90;;;5.69;100.00;101745.59;5000189;28;20512;-80
2021/11/06 04:15:05;;;;;;;31.60;12.63;;;7.90;99.90;;;5.71;100.00;101743.63;4999810;28;20046;-79
2021/11/06 04:17:32;;;;;;;26.25;12.05;;;7.90;99.90;;;5.77;100.00;101743.16;4999559;28;20050;-79
2021/11/06 04:19:59;;;;;;;23.50;10.90;;;8.00;99.90;;;5.82;100.00;101746.34;5000197;28;20551;-79
2021/11/06 04:22:28;;;;;;;27.75;12.13;;;8.00;99.90;;;5.85;100.00;101735.28;5000441;28;20124;-79
2021/11/06 04:24:55;;;;;;;24.75;11.43;;;8.00;99.90;;;5.83;100.00;101742.66;5000065;28;20469;-79
2021/11/06 04:27:22;;;;;;;26.70;11.43;;;8.10;99.90;;;5.92;100.00;101740.19;4999832;28;20050;-79
2021/11/06 04:29:50;;;;;;;22.30;11.38;;;8.10;99.90;;;5.91;100.00;101744.75;5000112;28;20125;-79
2021/11/06 04:32:17;;;;;;;26.58;10.73;;;8.10;99.90;;;5.93;100.00;101752.72;4997330;28;20593;-79
2021/11/06 04:34:44;;;;;;;25.30;11.68;;;8.10;99.90;;;5.97;100.00;101748.81;4999537;28;20044;-79
2021/11/06 04:37:12;;;;;;;29.48;11.93;;;8.20;99.90;;;5.88;100.00;101751.25;5000283;28;20482;-79
2021/11/06 04:39:40;;;;;;;24.92;11.48;;;8.10;99.90;;;5.93;100.00;101753.56;4998973;28;20041;-79
2021/11/06 04:42:09;;;;;;;32.67;11.52;;;8.10;99.90;;;5.93;100.00;101744.63;4999729;28;20133;-79
2021/11/06 04:44:37;;;;;;;24.85;11.38;;;8.20;99.90;;;5.97;100.00;101756.94;4999296;28;20459;-79
2021/11/06 04:47:05;;;;;;;24.70;11.05;;;8.20;99.90;;;5.95;100.00;101754.34;4999848;28;20571;-79
2021/11/06 04:49:32;;;;;;;22.08;9.88;;;8.20;99.90;;;5.98;100.00;101758.66;4999513;28;20121;-79
2021/11/06 04:52:00;;;;;;;24.60;10.60;;;8.20;99.90;;;6.02;100.00;101754.72;4999725;28;20062;-79
2021/11/06 04:54:27;;;;;;;23.92;10.65;;;8.20;99.90;;;6.00;100.00;101754.84;4999736;28;20815;-79
2021/11/06 04:56:55;;;;;;;26.30;10.85;;;8.20;99.90;;;6.00;100.00;101759.41;4999662;28;20077;-79
2021/11/06 04:59:23;;;;;;;21.25;9.77;;;8.20;99.90;;;6.08;100.00;101740.72;4998384;28;20048;-79
2021/11/06 05:01:51;;;;;;;24.48;10.27;;;8.30;99.90;;;6.04;100.00;101736.53;4996800;28;20085;-79
2021/11/06 05:04:18;;;;;;;23.02;9.63;;;8.30;99.90;;;6.01;100.00;101739.47;4999375;28;20050;-79
2021/11/06 05:06:45;;;;;;;24.25;10.10;;;8.30;99.90;;;6.01;100.00;101736.78;4998490;28;20475;-79
2021/11/06 05:09:12;;;;;;;23.60;9.75;;;8.20;99.90;;;6.04;100.00;101747.34;4998399;28;20066;-79
2021/11/06 05:11:40;;;;;;;22.08;9.50;;;8.20;99.90;;;6.04;100.00;101736.53;5034479;23;20073;-83
2021/11/06 05:14:08;;;;;;;24.60;10.32;;;8.20;99.90;;;5.95;100.00;101740.84;5001230;28;20128;-83
2021/11/06 05:16:36;;;;;;;26.00;9.93;;;8.20;99.90;;;5.90;100.00;101743.00;5000528;28;20446;-82
2021/11/06 05:19:03;;;;;;;18.73;9.40;;;8.30;99.90;;;5.93;100.00;101739.22;5000218;28;20078;-82
2021/11/06 05:21:36;;;;;;;23.08;9.73;;;8.20;99.90;;;5.84;100.00;101738.97;4995792;28;20046;-82
2021/11/06 05:24:04;;;;;;;24.90;9.45;;;8.20;99.90;;;5.81;100.00;101747.34;4979917;28;20047;-82
2021/11/06 05:26:34;;;;;;;20.80;9.13;;;8.20;99.90;;;5.77;100.00;101742.28;4979895;28;20043;-82
2021/11/06 05:29:03;;;;;;;20.95;9.30;;;8.20;99.90;;;5.74;100.00;101746.09;4980109;28;20042;-82
2021/11/06 05:31:32;;;;;;;22.85;9.30;;;8.20;99.90;;;5.68;100.00;101743.88;4979732;28;20430;-83
2021/11/06 05:34:01;;;;;;;20.90;9.70;;;8.10;99.90;;;5.60;100.00;101746.34;4979416;28;20078;-83
2021/11/06 05:36:28;;;;;;;27.17;10.90;;;8.10;99.90;;;5.56;100.00;101747.56;4978945;28;20125;-83
2021/11/06 05:38:55;;;;;;;24.65;10.60;;;8.10;99.90;;;5.58;100.00;101742.88;4979192;28;20045;-83
2021/11/06 05:41:23;;;;;;;23.65;9.50;;;8.10;99.90;;;5.47;100.00;101749.16;4979769;28;20046;-83
2021/11/06 05:43:50;;;;;;;22.10;9.45;;;8.10;99.90;;;5.41;100.00;101749.66;4978900;28;20070;-83
2021/11/06 05:46:18;;;;;;;23.48;8.95;;;8.00;99.90;;;5.37;100.00;101750.84;4978824;28;20057;-83
2021/11/06 05:48:46;;;;;;;21.70;9.13;;;8.00;99.90;;;5.26;100.00;101746.31;4978682;28;20486;-82
2021/11/06 05:51:13;;;;;;;19.65;9.25;;;7.90;99.90;;;5.32;100.00;101747.66;4979363;28;20567;-83
2021/11/06 05:53:41;;;;;;;21.13;9.68;;;7.90;99.90;;;5.28;100.00;101745.19;4979307;28;20170;-83
2021/11/06 05:56:08;;;;;;;20.67;9.85;;;7.90;99.90;;;5.31;100.00;101740.53;4979010;28;20042;-83
2021/11/06 05:58:35;;;;;;;25.27;10.23;;;7.90;99.90;;;5.30;100.00;101739.69;4978454;28;20409;-83
2021/11/06 06:01:03;;;;;;;21.40;10.30;;;7.90;99.90;;;5.34;100.00;101746.56;4978891;28;20078;-82
2021/11/06 06:03:30;;;;;;;25.65;9.85;;;7.80;99.90;;;5.36;100.00;101749.13;4978698;28;20130;-82
2021/11/06 06:05:59;;;;;;;21.65;10.43;;;7.80;99.90;;;5.38;100.00;101742.63;4977483;28;20153;-82
2021/11/06 06:08:26;;;;;;;25.05;10.82;;;7.80;99.90;;;5.42;100.00;101733.31;4979113;28;20122;-82
2021/11/06 06:10:53;;;;;;;25.63;10.55;;;7.90;99.90;;;5.36;100.00;101732.94;4979401;28;20840;-82
2021/11/06 06:13:21;;;;;;;23.77;10.65;;;7.90;99.90;;;5.33;100.00;101736.75;4977878;28;20050;-82
2021/11/06 06:15:48;;;;;;;22.13;9.80;;;7.90;99.90;;;5.31;100.00;101740.53;4978912;28;20562;-82
2021/11/06 06:18:16;;;;;;;22.77;10.38;;;7.80;99.90;;;5.29;100.00;101746.03;4978262;28;20046;-83
2021/11/06 06:20:43;;;;;;;25.63;11.05;;;7.80;99.90;;;5.34;100.00;101751.94;4978528;28;20125;-83
2021/11/06 06:23:11;;;;;;;22.15;10.80;;;7.80;99.90;;;5.35;100.00;101753.69;4978401;28;20066;-82
2021/11/06 06:25:39;;;;;;;21.15;10.48;;;7.80;99.90;;;5.36;100.00;101757.25;4978792;28;20077;-82
2021/11/06 06:28:06;;;;;;;24.80;10.90;;;7.80;99.90;;;5.40;100.00;101756.88;4978204;28;20529;-82
2021/11/06 06:30:35;;;;;;;23.00;9.90;;;7.80;99.90;;;5.42;100.00;101759.44;4978853;28;20082;-83
2021/11/06 06:33:03;;;;;;;25.75;11.23;;;7.80;99.90;;;5.46;100.00;101752.81;4978485;28;20051;-86
2021/11/06 06:35:30;;;;;;;27.55;11.30;;;7.80;99.90;;;5.53;100.00;101755.91;4978898;28;20053;-80
2021/11/06 06:37:59;;;;;;;21.05;10.43;;;7.80;99.90;;;5.63;100.00;101746.09;4977585;28;20463;-81
2021/11/06 06:40:27;;;;;;;30.27;12.07;;;7.90;99.90;;;5.69;100.00;101756.41;4978523;28;20043;-81
2021/11/06 06:42:55;;;;;;;24.40;11.18;;;7.90;99.90;;;5.78;100.00;101752.97;4979362;28;20170;-80
2021/11/06 06:45:23;;;;;;;27.83;11.55;;;7.90;99.90;;;5.86;100.00;101758.63;4978522;28;20104;-80
2021/11/06 06:47:50;;;;;;;22.55;10.85;;;7.90;99.90;;;5.94;100.00;101738.22;4967957;28;20054;-80
2021/11/06 06:50:18;;;;;;;21.33;10.45;;;7.90;99.90;;;5.99;100.00;101739.59;4978964;28;20133;-81
2021/11/06 06:52:45;;;;;;;23.60;11.30;;;8.00;99.90;;;6.04;100.00;101731.13;4978768;28;20129;-81
2021/11/06 06:55:13;;;;;;;23.45;11.10;;;8.00;99.90;;;6.05;100.00;101731.03;4978084;28;20046;-81
2021/11/06 06:57:42;;;;;;;21.92;10.35;;;8.10;99.90;;;6.11;100.00;101735.06;4980437;28;20387;-80
2021/11/06 07:00:13;;;;;;;24.60;10.07;;;8.10;99.90;;;6.19;100.00;101747.94;4982039;28;20050;-81
2021/11/06 07:02:40;;;;;;;26.83;11.48;;;8.10;99.90;;;6.22;100.00;101748.53;4982114;28;20050;-81
2021/11/06 07:05:09;;;;;;;24.25;11.13;;;8.20;99.90;;;6.21;100.00;101759.50;4982333;28;20124;-81
2021/11/06 07:07:37;;;;;;;24.55;11.15;;;8.20;99.90;;;6.17;100.00;101756.19;4981285;28;20077;-80
2021/11/06 07:10:06;;;;;;;26.30;11.05;;;8.20;99.90;;;6.16;100.00;101759.84;4982196;28;20041;-82
2021/11/06 07:12:34;;;;;;;25.42;10.52;;;8.20;99.90;;;6.19;100.00;101764.16;4981957;28;20557;-81
2021/11/06 07:15:04;;;;;;;20.60;10.18;;;8.30;99.90;;;6.27;100.00;101761.69;4981825;28;20046;-81
2021/11/06 07:17:31;;;;;;;25.75;11.32;;;8.30;99.90;;;6.34;100.00;101767.44;4981016;28;20570;-81
2021/11/06 07:19:59;;;;;;;22.52;11.00;;;8.30;99.90;;;6.32;100.00;101759.47;4981810;28;20115;-80
2021/11/06 07:22:26;;;;;;;28.25;11.48;;;8.30;99.90;;;6.35;100.00;101769.16;4981239;28;20680;-78
2021/11/06 07:24:53;;;;;;;24.52;11.20;;;8.40;99.90;;;6.42;100.00;101767.69;4982615;28;20043;-79
2021/11/06 07:27:20;;;;;;;29.42;12.75;;;8.40;99.90;;;6.49;100.00;101774.28;4985763;28;20046;-79
2021/11/06 07:29:48;;;;;;;25.55;11.60;;;8.40;99.90;;;6.57;100.00;101777.22;4981654;28;20134;-77
2021/11/06 07:32:17;;;;;;;20.33;10.52;;;8.50;99.90;;;6.72;100.00;101785.03;4981702;28;20051;-77
2021/11/06 07:34:44;;;;;;;26.48;11.98;;;8.50;99.90;;;6.81;100.00;101782.41;4981474;28;20046;-77
2021/11/06 07:37:12;;;;;;;29.15;12.80;;;8.60;99.90;;;6.86;100.00;101784.75;4981460;28;20043;-77
2021/11/06 07:39:39;;;;;;;25.63;12.02;;;8.60;99.90;;;6.90;100.00;101788.91;4980319;28;20050;-76
2021/11/06 07:42:07;;;;;;;26.55;11.45;;;8.70;99.90;;;6.91;100.00;101792.47;4981700;28;20046;-77
2021/11/06 07:44:34;;;;;;;24.25;11.73;;;8.70;99.90;;;6.84;100.00;101786.72;4981424;28;20057;-77
2021/11/06 07:47:02;;;;;;;20.73;11.57;;;8.70;99.90;;;6.85;100.00;101791.13;4981368;28;20047;-77
2021/11/06 07:49:30;;;;;;;22.30;11.50;;;8.70;99.90;;;6.88;100.00;101793.59;4981548;28;20053;-77
2021/11/06 07:51:59;;;;;;;20.83;11.00;;;8.80;99.90;;;6.91;100.00;101798.75;4981240;28;20595;-77
2021/11/06 07:54:27;;;;;;;22.33;10.85;;;8.80;99.90;;;6.94;100.00;101787.66;4981017;28;20128;-77
2021/11/06 07:56:54;;;;;;;21.80;10.30;;;8.80;99.90;;;6.96;100.00;101779.41;4981474;28;20399;-77
2021/11/06 07:59:22;;;;;;;21.35;10.50;;;8.90;99.90;;;6.97;100.00;101786.56;4980296;28;20483;-78
2021/11/06 08:01:50;;;;;;;21.15;10.05;;;8.90;99.90;;;6.97;100.00;101784.72;4980681;28;20126;-77
2021/11/06 08:04:17;;;;;;;18.98;10.40;;;8.90;99.90;;;6.96;100.00;101782.97;4980747;28;20125;-77
2021/11/06 08:06:45;;;;;;;19.92;10.45;;;9.00;99.90;;;7.00;100.00;101780.88;4982728;28;20403;-78
2021/11/06 08:09:13;;;;;;;19.40;10.05;;;9.00;99.90;;;7.00;100.00;101784.44;4980281;28;20193;-78
2021/11/06 08:11:40;;;;;;;17.23;9.82;;;9.00;99.90;;;7.04;100.00;101780.50;4981012;28;20129;-78
2021/11/06 08:14:08;;;;;;;17.60;9.13;;;9.00;99.90;;;7.08;100.00;101772.94;4980526;28;20049;-78
2021/11/06 08:16:35;;;;;;;23.23;9.35;;;9.00;99.90;;;7.08;100.00;101772.94;4980817;28;20477;-78
2021/11/06 08:19:03;;;;;;;19.88;10.10;;;9.00;99.90;;;7.04;100.00;101772.38;4980188;28;20503;-78
2021/11/06 08:21:30;;;;;;;17.58;9.30;;;9.00;99.90;;;7.03;100.00;101764.38;4981279;28;20673;-76
2021/11/06 08:23:58;;;;;;;20.83;9.57;;;9.00;99.90;;;7.08;100.00;101766.69;4980424;28;20526;-77
2021/11/06 08:26:26;;;;;;;20.67;9.45;;;9.00;99.90;;;7.22;100.00;101769.09;4980558;28;20056;-76
2021/11/06 08:28:54;;;;;;;22.65;9.93;;;9.10;99.90;;;7.28;100.00;101765.84;4980147;28;20133;-77
2021/11/06 08:31:21;;;;;;;18.85;9.20;;;9.10;99.90;;;7.33;100.00;101763.59;4979572;28;20047;-77
2021/11/06 08:33:48;;;;;;;19.08;10.10;;;9.10;99.90;;;7.36;100.00;101757.91;4980081;28;20053;-77
2021/11/06 08:36:16;;;;;;;20.63;9.90;;;9.20;99.90;;;7.42;100.00;101760.09;4980459;28;20130;-77
2021/11/06 08:38:43;;;;;;;18.58;9.10;;;9.20;99.80;;;7.50;100.00;101761.25;4979667;28;20478;-77
2021/11/06 08:41:12;;;;;;;17.98;8.85;;;9.20;99.90;;;7.58;100.00;101769.59;4980259;28;20077;-76
2021/11/06 08:43:39;;;;;;;17.88;9.85;;;9.30;99.80;;;7.63;100.00;101761.91;4994983;28;20051;-77
2021/11/06 08:46:07;;;;;;;17.92;9.15;;;9.20;99.60;;;7.69;100.00;101755.09;4980248;28;20073;-77
2021/11/06 08:48:35;;;;;;;17.50;8.88;;;9.30;99.70;;;7.78;100.00;101760.53;4977950;28;20142;-77
2021/11/06 08:51:03;;;;;;;17.52;9.00;;;9.30;99.90;;;7.83;100.00;101758.28;4980900;28;20035;-77
2021/11/06 08:53:30;;;;;;;22.05;8.93;;;9.30;99.00;;;7.88;100.00;101762.44;4980519;28;20046;-78
2021/11/06 08:55:57;;;;;;;16.75;8.52;;;9.40;99.30;;;7.89;100.00;101762.31;4980236;28;20208;-76
2021/11/06 08:58:26;;;;;;;17.67;8.68;;;9.40;99.40;;;7.91;100.00;101754.06;4980771;28;20491;-77
2021/11/06 09:00:55;;;;;;;17.55;9.43;;;9.50;99.40;;;7.91;100.00;101760.31;4979777;28;20135;-77
2021/11/06 09:03:25;;;;;;;14.27;7.45;;;9.50;98.90;;;7.93;100.00;101757.47;4979443;28;20058;-77
2021/11/06 09:05:55;;;;;;;13.67;8.10;;;9.50;99.20;;;7.96;100.00;101749.94;4979972;28;20082;-78
2021/11/06 09:08:26;;;;;;;15.90;8.77;;;9.60;99.10;;;8.01;100.00;101744.97;4992523;28;20298;-78
2021/11/06 09:10:56;;;;;;;17.77;8.70;;;9.60;98.60;;;8.03;100.00;101744.81;4979840;28;20149;-78
2021/11/06 09:13:24;;;;;;;15.52;8.25;;;9.60;98.90;;;8.07;100.00;101754.38;4979719;28;20690;-79
2021/11/06 09:15:52;;;;;;;19.55;8.25;;;9.70;98.40;;;8.11;100.00;101763.97;4979666;28;20074;-79
2021/11/06 09:18:20;;;;;;;21.98;7.95;;;9.70;98.80;;;8.13;100.00;101764.69;4981243;28;20073;-79
2021/11/06 09:20:47;;;;;;;16.83;8.05;;;9.80;98.90;;;8.15;100.00;101768.13;4979080;28;20567;-79
2021/11/06 09:23:15;;;;;;;14.40;8.20;;;9.80;98.90;;;8.17;100.00;101762.56;4980078;28;20789;-79
2021/11/06 09:25:42;;;;;;;18.98;7.43;;;9.80;98.30;;;8.21;100.00;101754.00;4979946;28;20046;-79
2021/11/06 09:28:10;;;;;;;13.68;7.85;;;9.90;98.40;;;8.23;100.00;101756.59;4978639;28;20074;-83
2021/11/06 09:30:37;;;;;;;16.67;7.85;;;9.90;98.30;;;8.26;100.00;101771.72;4979852;28;20053;-79
2021/11/06 09:33:06;;;;;;;21.00;8.95;;;9.90;98.30;;;8.21;100.00;101770.28;4979721;28;20890;-79
2021/11/06 09:35:33;;;;;;;13.80;7.20;;;9.90;98.40;;;8.15;100.00;101778.97;4979312;28;20430;-79
2021/11/06 09:38:00;;;;;;;14.55;7.78;;;10.00;98.40;;;8.17;100.00;101776.13;4978545;28;20140;-80
2021/11/06 09:40:28;;;;;;;15.52;7.80;;;10.00;98.30;;;8.16;100.00;101782.53;4979203;28;20045;-80
2021/11/06 09:42:55;;;;;;;13.90;7.95;;;10.00;98.20;;;8.15;100.00;101773.53;4979687;28;20152;-79
2021/11/06 09:45:22;;;;;;;14.95;7.82;;;10.00;98.10;;;8.18;100.00;101773.25;4980719;28;20507;-79
2021/11/06 09:47:50;;;;;;;18.35;8.82;;;10.00;98.00;;;8.21;100.00;101778.41;4964980;28;20517;-79
2021/11/06 09:50:22;;;;;;;15.38;7.45;;;10.10;97.80;;;8.30;100.00;101770.44;4980482;28;20069;-79
2021/11/06 09:52:50;;;;;;;17.63;8.57;;;10.10;97.90;;;8.40;100.00;101771.34;4979228;28;20042;-79
2021/11/06 09:55:21;;;;;;;15.90;8.02;;;10.10;97.70;;;8.53;100.00;101771.09;4979038;28;20070;-79
2021/11/06 09:57:49;;;;;;;14.32;7.55;;;10.10;97.80;;;8.70;99.95;101761.41;4978564;28;20515;-79
2021/11/06 10:00:19;;;;;;;13.20;7.15;;;10.10;98.00;;;8.80;99.89;101770.41;4979078;28;20089;-79
2021/11/06 10:02:48;;;;;;;16.23;7.65;;;10.20;97.70;;;8.88;99.04;101764.28;4960836;28;20056;-79
2021/11/06 10:05:16;;;;;;;13.25;7.30;;;10.20;97.40;;;8.97;98.97;101764.28;4978808;28;20085;-79
2021/11/06 10:07:44;;;;;;;13.18;6.97;;;10.30;97.40;;;9.07;97.71;101758.84;4992434;28;20140;-80
2021/11/06 10:10:15;;;;;;;12.77;7.75;;;10.30;97.50;;;9.10;97.57;101760.41;4979911;28;20043;-82